Terminal Aerodrome Forecast
Issued by NWS Sioux Falls, SD

Home | Current Version | Previous Version | Graphics & Text | Print | Product List | Glossary On
Versions: 1 2 3 4 5 6 7 8 9 10 11 12 13 14 15 16 17 18 19 20 21 22 23 24 25 26
501
FTUS43 KFSD 231722
TAFFSD
TAF
KFSD 231722Z 2318/2418 15016G24KT P6SM OVC020
     FM240000 13008KT 6SM -SHRA OVC008
     FM240600 07007KT 2SM SHRA VCTS OVC008CB
     FM240900 03009KT 2SM -SHRA BR OVC008
     FM241200 02013KT 1 1/2SM SHRA BR OVC005
     FM241600 03017KT 2SM -SHRA OVC008=

USA.gov is the U.S. government's official web portal to all federal, state and local government web resources and services.